DLH370 EDDC-EDDH
Flight info
| Callsign | DLH370 |
|---|---|
| Flight time | 0h 43m |
| Altitude | 28000 |
| Route | OSKAN3D OSKAN M748 ERNUD M726 BKD Z870 GURLO M748 BUMIL/N0363F240 M748 RARUP RARUP3P |
| Aircraft | A20N/M-SDE2E3FGHIRWXY/LB1 |
Departure
| Time | 2026-04-24 15:47 |
|---|---|
| Airport | Dresden Airport (EDDC) |
Arrival
| Time | 2026-04-24 16:30 |
|---|---|
| Airport | Hamburg Helmut Schmidt Airport (EDDH) |
| Time | Latitude | Longitude | Altitude | Speed | Heading |
|---|---|---|---|---|---|
| 2026-04-24 15:27 | 51.12633 | 13.76394 | 752 ft | 0 kts | 130° |
| 2026-04-24 15:39 | 51.12643 | 13.76374 | 748 ft | 2 kts | 129° |
| 2026-04-24 15:40 | 51.12654 | 13.76354 | 748 ft | 2 kts | 128° |
| 2026-04-24 15:40 | 51.12664 | 13.76333 | 749 ft | 2 kts | 125° |
| 2026-04-24 15:40 | 51.12673 | 13.76311 | 747 ft | 2 kts | 121° |
| 2026-04-24 15:40 | 51.12681 | 13.76288 | 745 ft | 2 kts | 111° |
| 2026-04-24 15:41 | 51.12685 | 13.76263 | 745 ft | 2 kts | 81° |
| 2026-04-24 15:41 | 51.12680 | 13.76242 | 745 ft | 1 kts | 46° |
| 2026-04-24 15:41 | 51.12678 | 13.76238 | 747 ft | 0 kts | 45° |
| 2026-04-24 15:42 | 51.12679 | 13.76240 | 745 ft | 2 kts | 45° |
| 2026-04-24 15:42 | 51.12715 | 13.76288 | 748 ft | 11 kts | 38° |
| 2026-04-24 15:43 | 51.12796 | 13.76398 | 747 ft | 18 kts | 40° |
| 2026-04-24 15:43 | 51.12903 | 13.76544 | 743 ft | 23 kts | 41° |
| 2026-04-24 15:43 | 51.13030 | 13.76718 | 743 ft | 25 kts | 41° |
| 2026-04-24 15:43 | 51.13171 | 13.76914 | 738 ft | 29 kts | 41° |
| 2026-04-24 15:44 | 51.13337 | 13.77145 | 729 ft | 34 kts | 40° |
| 2026-04-24 15:44 | 51.13522 | 13.77395 | 724 ft | 36 kts | 41° |
| 2026-04-24 15:44 | 51.13712 | 13.77660 | 717 ft | 36 kts | 41° |
| 2026-04-24 15:44 | 51.13909 | 13.77931 | 701 ft | 39 kts | 41° |
| 2026-04-24 15:45 | 51.14113 | 13.78210 | 701 ft | 39 kts | 40° |
| 2026-04-24 15:45 | 51.14256 | 13.78358 | 695 ft | 12 kts | 350° |
| 2026-04-24 15:45 | 51.14321 | 13.78259 | 698 ft | 15 kts | 310° |
| 2026-04-24 15:45 | 51.14371 | 13.78117 | 707 ft | 14 kts | 259° |
| 2026-04-24 15:46 | 51.14348 | 13.78054 | 712 ft | 0 kts | 224° |
| 2026-04-24 15:46 | 51.14230 | 13.77889 | 711 ft | 64 kts | 221° |
| 2026-04-24 15:47 | 51.13676 | 13.77126 | 729 ft | 142 kts | 222° |
| 2026-04-24 15:47 | 51.12850 | 13.76000 | 1285 ft | 162 kts | 225° |
| 2026-04-24 15:47 | 51.12029 | 13.74771 | 2309 ft | 162 kts | 230° |
| 2026-04-24 15:47 | 51.11223 | 13.73492 | 3149 ft | 172 kts | 228° |
| 2026-04-24 15:48 | 51.10289 | 13.72098 | 3667 ft | 197 kts | 227° |
| 2026-04-24 15:48 | 51.09199 | 13.70538 | 4163 ft | 223 kts | 225° |
| 2026-04-24 15:48 | 51.07976 | 13.68827 | 4797 ft | 245 kts | 225° |
| 2026-04-24 15:48 | 51.06622 | 13.66952 | 5385 ft | 268 kts | 224° |
| 2026-04-24 15:49 | 51.05191 | 13.64986 | 6250 ft | 276 kts | 224° |
| 2026-04-24 15:49 | 51.03784 | 13.62888 | 6727 ft | 277 kts | 236° |
| 2026-04-24 15:49 | 51.02963 | 13.60185 | 6925 ft | 270 kts | 262° |
| 2026-04-24 15:49 | 51.02995 | 13.57266 | 6999 ft | 265 kts | 288° |
| 2026-04-24 15:50 | 51.03856 | 13.54758 | 7004 ft | 259 kts | 315° |
| 2026-04-24 15:50 | 51.05353 | 13.53213 | 7006 ft | 260 kts | 340° |
| 2026-04-24 15:50 | 51.07068 | 13.52359 | 7296 ft | 262 kts | 338° |
| 2026-04-24 15:50 | 51.08716 | 13.51144 | 8281 ft | 260 kts | 331° |
| 2026-04-24 15:51 | 51.10268 | 13.49653 | 9137 ft | 262 kts | 327° |
| 2026-04-24 15:51 | 51.11771 | 13.47978 | 9740 ft | 266 kts | 324° |
| 2026-04-24 15:51 | 51.13261 | 13.46197 | 10598 ft | 274 kts | 323° |
| 2026-04-24 15:51 | 51.14847 | 13.44268 | 10955 ft | 299 kts | 323° |
| 2026-04-24 15:52 | 51.16560 | 13.42186 | 11384 ft | 317 kts | 323° |
| 2026-04-24 15:52 | 51.18379 | 13.40121 | 12170 ft | 323 kts | 330° |
| 2026-04-24 15:52 | 51.20499 | 13.38876 | 12704 ft | 329 kts | 348° |
| 2026-04-24 15:52 | 51.22764 | 13.38890 | 12948 ft | 334 kts | 8° |
| 2026-04-24 15:53 | 51.24951 | 13.40255 | 13187 ft | 343 kts | 28° |
| 2026-04-24 15:53 | 51.26943 | 13.42386 | 13424 ft | 346 kts | 31° |
| 2026-04-24 15:53 | 51.28929 | 13.44580 | 13666 ft | 348 kts | 30° |
| 2026-04-24 15:53 | 51.31113 | 13.46124 | 13900 ft | 343 kts | 9° |
| 2026-04-24 15:54 | 51.33476 | 13.46237 | 14187 ft | 342 kts | 347° |
| 2026-04-24 15:54 | 51.35670 | 13.44841 | 14976 ft | 340 kts | 326° |
| 2026-04-24 15:54 | 51.37547 | 13.42523 | 15779 ft | 343 kts | 320° |
| 2026-04-24 15:54 | 51.39398 | 13.40085 | 16551 ft | 346 kts | 320° |
| 2026-04-24 15:55 | 51.41293 | 13.37671 | 17299 ft | 349 kts | 321° |
| 2026-04-24 15:55 | 51.43238 | 13.35303 | 18040 ft | 353 kts | 322° |
| 2026-04-24 15:55 | 51.45230 | 13.32951 | 18652 ft | 358 kts | 323° |
| 2026-04-24 15:55 | 51.47229 | 13.30622 | 18887 ft | 359 kts | 323° |
| 2026-04-24 15:56 | 51.49251 | 13.28277 | 19004 ft | 359 kts | 323° |
| 2026-04-24 15:56 | 51.51286 | 13.25915 | 18993 ft | 360 kts | 323° |
| 2026-04-24 15:56 | 51.53309 | 13.23561 | 18982 ft | 359 kts | 323° |
| 2026-04-24 15:56 | 51.55264 | 13.21082 | 18975 ft | 358 kts | 314° |
| 2026-04-24 15:57 | 51.56698 | 13.17829 | 18978 ft | 358 kts | 297° |
| 2026-04-24 15:57 | 51.57714 | 13.14157 | 18977 ft | 359 kts | 294° |
| 2026-04-24 15:57 | 51.58363 | 13.11716 | 18976 ft | 359 kts | 294° |
| 2026-04-24 15:57 | 51.59664 | 13.06812 | 18977 ft | 359 kts | 294° |
| 2026-04-24 15:58 | 51.60642 | 13.03114 | 18977 ft | 359 kts | 294° |
| 2026-04-24 15:58 | 51.61619 | 12.99419 | 19014 ft | 358 kts | 294° |
| 2026-04-24 15:58 | 51.62594 | 12.95725 | 19315 ft | 359 kts | 294° |
| 2026-04-24 15:58 | 51.63574 | 12.91999 | 19782 ft | 362 kts | 295° |
| 2026-04-24 15:59 | 51.64555 | 12.88251 | 20274 ft | 364 kts | 295° |
| 2026-04-24 15:59 | 51.65540 | 12.84475 | 20769 ft | 367 kts | 295° |
| 2026-04-24 15:59 | 51.66530 | 12.80662 | 21273 ft | 369 kts | 295° |
| 2026-04-24 15:59 | 51.67520 | 12.76830 | 21785 ft | 372 kts | 295° |
| 2026-04-24 16:00 | 51.68501 | 12.73017 | 22302 ft | 374 kts | 294° |
| 2026-04-24 16:00 | 51.69498 | 12.69127 | 22829 ft | 377 kts | 295° |
| 2026-04-24 16:00 | 51.70499 | 12.65202 | 23370 ft | 379 kts | 294° |
| 2026-04-24 16:00 | 51.71507 | 12.61240 | 23888 ft | 382 kts | 294° |
| 2026-04-24 16:01 | 51.72524 | 12.57267 | 24353 ft | 384 kts | 296° |
| 2026-04-24 16:01 | 51.73867 | 12.53545 | 24829 ft | 385 kts | 309° |
| 2026-04-24 16:01 | 51.75789 | 12.50520 | 25294 ft | 389 kts | 324° |
| 2026-04-24 16:01 | 51.78127 | 12.48246 | 25781 ft | 393 kts | 329° |
| 2026-04-24 16:02 | 51.80522 | 12.46083 | 26276 ft | 396 kts | 329° |
| 2026-04-24 16:02 | 51.82898 | 12.43935 | 26770 ft | 397 kts | 329° |
| 2026-04-24 16:02 | 51.85307 | 12.41729 | 27281 ft | 398 kts | 328° |
| 2026-04-24 16:02 | 51.87717 | 12.39498 | 27799 ft | 399 kts | 328° |
| 2026-04-24 16:03 | 51.90140 | 12.37236 | 28057 ft | 405 kts | 327° |
| 2026-04-24 16:03 | 51.92599 | 12.34932 | 28123 ft | 409 kts | 327° |
| 2026-04-24 16:03 | 51.96691 | 12.31097 | 28122 ft | 408 kts | 327° |
| 2026-04-24 16:04 | 52.02420 | 12.25720 | 28125 ft | 408 kts | 327° |
| 2026-04-24 16:04 | 52.06546 | 12.21842 | 28123 ft | 409 kts | 327° |
| 2026-04-24 16:05 | 52.13921 | 12.14894 | 28121 ft | 409 kts | 327° |
| 2026-04-24 16:06 | 52.21319 | 12.07902 | 28121 ft | 409 kts | 327° |
| 2026-04-24 16:07 | 52.28671 | 12.00933 | 28122 ft | 410 kts | 326° |
| 2026-04-24 16:07 | 52.36072 | 11.93891 | 28118 ft | 410 kts | 326° |
| 2026-04-24 16:08 | 52.43475 | 11.86825 | 28114 ft | 410 kts | 326° |
| 2026-04-24 16:09 | 52.50841 | 11.79769 | 28118 ft | 411 kts | 326° |
| 2026-04-24 16:09 | 52.55784 | 11.75020 | 28114 ft | 411 kts | 326° |
| 2026-04-24 16:11 | 52.68091 | 11.63145 | 28114 ft | 411 kts | 326° |
| 2026-04-24 16:11 | 52.73036 | 11.58352 | 28085 ft | 411 kts | 326° |
| 2026-04-24 16:12 | 52.77959 | 11.53568 | 27578 ft | 408 kts | 326° |
| 2026-04-24 16:12 | 52.80400 | 11.51192 | 27320 ft | 406 kts | 326° |
| 2026-04-24 16:12 | 52.85252 | 11.46460 | 26814 ft | 403 kts | 326° |
| 2026-04-24 16:13 | 52.87632 | 11.44134 | 26536 ft | 402 kts | 326° |
| 2026-04-24 16:13 | 52.92448 | 11.39412 | 25412 ft | 399 kts | 326° |
| 2026-04-24 16:14 | 52.97190 | 11.34760 | 24344 ft | 389 kts | 326° |
| 2026-04-24 16:14 | 52.99493 | 11.32500 | 24173 ft | 382 kts | 326° |
| 2026-04-24 16:14 | 53.04106 | 11.27948 | 23751 ft | 385 kts | 326° |
| 2026-04-24 16:15 | 53.05627 | 11.26444 | 23368 ft | 385 kts | 326° |
| 2026-04-24 16:15 | 53.10912 | 11.21213 | 21559 ft | 373 kts | 326° |
| 2026-04-24 16:16 | 53.15326 | 11.16832 | 20066 ft | 367 kts | 327° |
| 2026-04-24 16:16 | 53.17515 | 11.14653 | 19348 ft | 364 kts | 327° |
| 2026-04-24 16:17 | 53.23915 | 11.08270 | 17103 ft | 352 kts | 327° |
| 2026-04-24 16:17 | 53.28069 | 11.04119 | 16108 ft | 346 kts | 328° |
| 2026-04-24 16:18 | 53.32122 | 11.00062 | 15359 ft | 324 kts | 328° |
| 2026-04-24 16:18 | 53.35836 | 10.96336 | 14631 ft | 298 kts | 327° |
| 2026-04-24 16:18 | 53.37511 | 10.94363 | 14288 ft | 310 kts | 322° |
| 2026-04-24 16:19 | 53.41045 | 10.89662 | 13547 ft | 321 kts | 321° |
| 2026-04-24 16:19 | 53.42782 | 10.87357 | 13161 ft | 315 kts | 322° |
| 2026-04-24 16:20 | 53.46185 | 10.82936 | 12343 ft | 305 kts | 322° |
| 2026-04-24 16:20 | 53.49481 | 10.78714 | 11422 ft | 289 kts | 323° |
| 2026-04-24 16:20 | 53.51059 | 10.76697 | 10995 ft | 282 kts | 323° |
| 2026-04-24 16:21 | 53.54091 | 10.72819 | 10167 ft | 267 kts | 323° |
| 2026-04-24 16:21 | 53.55552 | 10.70947 | 9786 ft | 260 kts | 323° |
| 2026-04-24 16:21 | 53.57001 | 10.69087 | 9401 ft | 263 kts | 323° |
| 2026-04-24 16:22 | 53.58448 | 10.67227 | 9003 ft | 260 kts | 323° |
| 2026-04-24 16:22 | 53.61307 | 10.63541 | 8186 ft | 256 kts | 323° |
| 2026-04-24 16:22 | 53.62720 | 10.61717 | 7791 ft | 255 kts | 323° |
| 2026-04-24 16:23 | 53.64127 | 10.59900 | 7365 ft | 255 kts | 323° |
| 2026-04-24 16:23 | 53.65529 | 10.58088 | 6894 ft | 253 kts | 323° |
| 2026-04-24 16:23 | 53.66913 | 10.56296 | 6440 ft | 250 kts | 323° |
| 2026-04-24 16:24 | 53.69671 | 10.52732 | 5483 ft | 254 kts | 323° |
| 2026-04-24 16:24 | 53.71075 | 10.50918 | 5000 ft | 253 kts | 322° |
| 2026-04-24 16:24 | 53.72429 | 10.49030 | 4520 ft | 252 kts | 311° |
| 2026-04-24 16:24 | 53.73415 | 10.46587 | 4115 ft | 249 kts | 303° |
| 2026-04-24 16:25 | 53.74312 | 10.44146 | 3995 ft | 247 kts | 303° |
| 2026-04-24 16:25 | 53.75227 | 10.41652 | 3971 ft | 248 kts | 303° |
| 2026-04-24 16:25 | 53.76132 | 10.39189 | 3974 ft | 247 kts | 303° |
| 2026-04-24 16:26 | 53.77927 | 10.34279 | 3976 ft | 247 kts | 303° |
| 2026-04-24 16:26 | 53.78537 | 10.31573 | 3975 ft | 251 kts | 279° |
| 2026-04-24 16:26 | 53.77966 | 10.25638 | 3964 ft | 260 kts | 250° |
| 2026-04-24 16:27 | 53.76889 | 10.23154 | 3572 ft | 269 kts | 223° |
| 2026-04-24 16:27 | 53.75369 | 10.21386 | 3416 ft | 259 kts | 217° |
| 2026-04-24 16:27 | 53.73926 | 10.19751 | 3284 ft | 240 kts | 221° |
| 2026-04-24 16:27 | 53.72688 | 10.18044 | 3172 ft | 226 kts | 228° |
| 2026-04-24 16:28 | 53.71585 | 10.16213 | 2961 ft | 220 kts | 232° |
| 2026-04-24 16:28 | 53.70549 | 10.14256 | 2499 ft | 228 kts | 235° |
| 2026-04-24 16:28 | 53.68464 | 10.10013 | 1594 ft | 231 kts | 237° |
| 2026-04-24 16:29 | 53.67487 | 10.07936 | 1275 ft | 221 kts | 237° |
| 2026-04-24 16:29 | 53.66556 | 10.06031 | 929 ft | 201 kts | 234° |
| 2026-04-24 16:29 | 53.64894 | 10.02682 | 438 ft | 174 kts | 236° |
| 2026-04-24 16:30 | 53.63378 | 9.99520 | 48 ft | 161 kts | 233° |
| 2026-04-24 16:30 | 53.63001 | 9.98728 | 47 ft | 37 kts | 227° |
| 2026-04-24 16:30 | 53.62806 | 9.98489 | 48 ft | 28 kts | 193° |
| 2026-04-24 16:31 | 53.62754 | 9.98474 | 47 ft | 2 kts | 185° |
| 2026-04-24 16:31 | 53.62720 | 9.98487 | 46 ft | 8 kts | 153° |
| 2026-04-24 16:31 | 53.62708 | 9.98582 | 46 ft | 11 kts | 56° |
| 2026-04-24 16:31 | 53.62765 | 9.98703 | 46 ft | 16 kts | 50° |
| 2026-04-24 16:32 | 53.62816 | 9.98803 | 46 ft | 18 kts | 49° |
| 2026-04-24 16:32 | 53.62937 | 9.99045 | 47 ft | 22 kts | 49° |
| 2026-04-24 16:32 | 53.63043 | 9.99255 | 47 ft | 23 kts | 51° |
| 2026-04-24 16:32 | 53.63136 | 9.99483 | 48 ft | 25 kts | 55° |
| 2026-04-24 16:33 | 53.63170 | 9.99561 | 47 ft | 0 kts | 53° |
| 2026-04-24 16:33 | 53.63180 | 9.99583 | 47 ft | 5 kts | 50° |
| 2026-04-24 16:33 | 53.63187 | 9.99596 | 47 ft | 1 kts | 50° |
| 2026-04-24 16:33 | 53.63204 | 9.99630 | 48 ft | 6 kts | 49° |
| 2026-04-24 16:34 | 53.63249 | 9.99711 | 48 ft | 13 kts | 45° |
| 2026-04-24 16:34 | 53.63323 | 9.99842 | 49 ft | 18 kts | 53° |
| 2026-04-24 16:34 | 53.63398 | 9.99999 | 50 ft | 19 kts | 50° |
| 2026-04-24 16:34 | 53.63425 | 10.00157 | 48 ft | 0 kts | 107° |
| 2026-04-24 16:35 | 53.63423 | 10.00198 | 51 ft | 8 kts | 93° |
| 2026-04-24 16:35 | 53.63414 | 10.00333 | 49 ft | 11 kts | 97° |
| 2026-04-24 16:35 | 53.63415 | 10.00352 | 51 ft | 0 kts | 83° |
| 2026-04-24 16:35 | 53.63415 | 10.00361 | 51 ft | 0 kts | 88° |
| 2026-04-24 16:36 | 53.63415 | 10.00365 | 51 ft | 0 kts | 88° |